Time;durP1;ratioP1;P1;durP2;ratioP2;P2;SDS_P1;SDS_P2;PMS_P1;PMS_P2;Temp;Humidity;BMP_temperature;BMP_pressure;BME280_temperature;BME280_humidity;BME280_pressure;Samples;Min_cycle;Max_cycle;Signal;HPM_P1;HPM_P2
2021/10/09 00:00:47;;;;;;;11.43;8.67;;;;;;;;;;5033363;28;20221;-60
2021/10/09 00:03:12;;;;;;;17.43;11.17;;;;;;;;;;5033187;28;20304;-60
2021/10/09 00:05:37;;;;;;;12.73;10.20;;;;;;;;;;5033582;28;20306;-60
2021/10/09 00:08:03;;;;;;;13.70;10.90;;;;;;;;;;5033024;28;20653;-60
2021/10/09 00:10:30;;;;;;;16.43;11.63;;;;;;;;;;5033002;28;20295;-60
2021/10/09 00:12:56;;;;;;;12.10;10.50;;;;;;;;;;5033377;28;20283;-60
2021/10/09 00:15:22;;;;;;;25.00;10.57;;;;;;;;;;5032757;28;20920;-60
2021/10/09 00:17:48;;;;;;;11.10;10.10;;;;;;;;;;5033226;28;20240;-61
2021/10/09 00:20:13;;;;;;;17.60;11.20;;;;;;;;;;5032789;28;20461;-60
2021/10/09 00:22:38;;;;;;;14.30;10.23;;;;;;;;;;5035356;28;20233;-60
2021/10/09 00:25:07;;;;;;;16.50;11.63;;;;;;;;;;5036524;28;20623;-59
2021/10/09 00:27:33;;;;;;;18.40;10.80;;;;;;;;;;5036766;28;20379;-59
2021/10/09 00:29:58;;;;;;;17.90;12.20;;;;;;;;;;5035689;28;20983;-60
2021/10/09 00:32:24;;;;;;;14.90;11.53;;;;;;;;;;5036510;28;20570;-59
2021/10/09 00:34:49;;;;;;;15.13;11.20;;;;;;;;;;5036561;28;20546;-59
2021/10/09 00:37:14;;;;;;;13.90;10.87;;;;;;;;;;5035291;28;20253;-60
2021/10/09 00:39:39;;;;;;;14.93;11.33;;;;;;;;;;5036414;28;20618;-60
2021/10/09 00:42:05;;;;;;;18.17;11.73;;;;;;;;;;5036374;28;20642;-59
2021/10/09 00:44:31;;;;;;;16.17;12.17;;;;;;;;;;5036565;28;20245;-59
2021/10/09 00:47:01;;;;;;;18.40;11.17;;;;;;;;;;5036426;28;20214;-60
2021/10/09 00:49:28;;;;;;;14.30;11.57;;;;;;;;;;5035836;28;20574;-60
2021/10/09 00:51:54;;;;;;;15.93;11.90;;;;;;;;;;5036253;28;20486;-59
2021/10/09 00:54:19;;;;;;;14.53;11.53;;;;;;;;;;5035777;28;20518;-60
2021/10/09 00:56:46;;;;;;;18.60;12.30;;;;;;;;;;5036181;28;20501;-60
2021/10/09 00:59:13;;;;;;;17.27;10.93;;;;;;;;;;5035713;28;20236;-59
2021/10/09 01:01:41;;;;;;;13.20;11.80;;;;;;;;;;5036067;28;20643;-60
2021/10/09 01:04:07;;;;;;;17.37;10.63;;;;;;;;;;5035857;28;20459;-60
2021/10/09 01:06:32;;;;;;;13.00;10.50;;;;;;;;;;5035894;28;20796;-59
2021/10/09 01:08:58;;;;;;;14.40;10.10;;;;;;;;;;5036085;28;20465;-59
2021/10/09 01:11:23;;;;;;;14.73;11.17;;;;;;;;;;5035427;28;20268;-60
2021/10/09 01:13:48;;;;;;;13.53;10.20;;;;;;;;;;5036010;28;20301;-59
2021/10/09 01:16:18;;;;;;;15.90;11.17;;;;;;;;;;5035633;28;20309;-59
2021/10/09 01:18:47;;;;;;;15.97;11.10;;;;;;;;;;5035748;28;20299;-59
2021/10/09 01:21:12;;;;;;;16.53;11.80;;;;;;;;;;5035428;28;20798;-60
2021/10/09 01:23:37;;;;;;;14.57;10.13;;;;;;;;;;5035596;28;20466;-60
2021/10/09 01:26:02;;;;;;;18.57;12.73;;;;;;;;;;5035541;28;20309;-60
2021/10/09 01:28:29;;;;;;;15.77;11.10;;;;;;;;;;5050887;28;20233;-59
2021/10/09 01:30:54;;;;;;;16.57;12.33;;;;;;;;;;5035465;28;20275;-60
2021/10/09 01:33:20;;;;;;;18.33;11.17;;;;;;;;;;5035048;28;20499;-60
2021/10/09 01:35:50;;;;;;;18.47;11.93;;;;;;;;;;5035621;28;20225;-60
2021/10/09 01:38:16;;;;;;;16.50;11.93;;;;;;;;;;5035037;28;20229;-59
2021/10/09 01:40:42;;;;;;;19.20;11.13;;;;;;;;;;5035495;28;20468;-59
2021/10/09 01:43:11;;;;;;;19.50;11.53;;;;;;;;;;5035119;28;20461;-59
2021/10/09 01:45:38;;;;;;;13.23;10.40;;;;;;;;;;5050958;28;20221;-60
2021/10/09 01:48:03;;;;;;;13.30;11.37;;;;;;;;;;5035303;28;20468;-60
2021/10/09 01:50:29;;;;;;;17.23;10.97;;;;;;;;;;5034568;28;20559;-59
2021/10/09 01:52:55;;;;;;;15.77;10.83;;;;;;;;;;5035373;28;20220;-60
2021/10/09 01:55:20;;;;;;;21.27;11.70;;;;;;;;;;5034880;28;20279;-60
2021/10/09 01:57:45;;;;;;;12.97;11.20;;;;;;;;;;5035043;28;20462;-60
2021/10/09 02:00:11;;;;;;;14.03;10.37;;;;;;;;;;5034673;28;20306;-60
2021/10/09 02:02:36;;;;;;;19.37;11.30;;;;;;;;;;5035199;28;20301;-59
2021/10/09 02:05:03;;;;;;;18.57;12.07;;;;;;;;;;5034928;28;20233;-59
2021/10/09 02:07:28;;;;;;;14.53;10.93;;;;;;;;;;5034780;28;20230;-60
2021/10/09 02:09:53;;;;;;;13.90;11.63;;;;;;;;;;5050469;28;20777;-60
2021/10/09 02:12:19;;;;;;;14.93;11.67;;;;;;;;;;5034399;28;20226;-59
2021/10/09 02:14:50;;;;;;;21.43;11.70;;;;;;;;;;5042413;28;20661;-60
2021/10/09 02:25:44;;;;;;;17.40;12.47;;;;;;;;;;5073740;28;20857;-59
2021/10/09 02:28:09;;;;;;;13.90;10.57;;;;;;;;;;5053344;28;20562;-60
2021/10/09 02:30:34;;;;;;;13.40;10.50;;;;;;;;;;5052043;28;20530;-59
2021/10/09 02:33:00;;;;;;;17.83;11.90;;;;;;;;;;5044257;28;20218;-59
2021/10/09 02:35:25;;;;;;;16.20;10.80;;;;;;;;;;5061078;28;20243;-59
2021/10/09 02:37:50;;;;;;;14.60;12.03;;;;;;;;;;5063595;28;20262;-60
2021/10/09 02:40:15;;;;;;;16.53;10.47;;;;;;;;;;5065829;28;20240;-60
2021/10/09 02:42:41;;;;;;;16.60;12.53;;;;;;;;;;5063703;28;20235;-59
2021/10/09 02:45:06;;;;;;;13.03;11.30;;;;;;;;;;5060129;28;20317;-59
2021/10/09 02:47:32;;;;;;;18.07;10.87;;;;;;;;;;5063746;28;20220;-59
2021/10/09 02:49:57;;;;;;;13.60;10.90;;;;;;;;;;5067133;28;20224;-59
2021/10/09 02:52:22;;;;;;;15.70;11.07;;;;;;;;;;5062582;28;20305;-59
2021/10/09 02:54:47;;;;;;;14.07;9.90;;;;;;;;;;5060879;28;20228;-59
2021/10/09 02:57:13;;;;;;;15.30;12.80;;;;;;;;;;5065219;28;20213;-59
2021/10/09 02:59:38;;;;;;;15.20;11.20;;;;;;;;;;5068055;28;20231;-59
2021/10/09 03:02:04;;;;;;;13.00;11.03;;;;;;;;;;5061550;28;20224;-59
2021/10/09 03:04:29;;;;;;;21.20;12.03;;;;;;;;;;5059894;28;20734;-59
2021/10/09 03:06:54;;;;;;;15.83;11.77;;;;;;;;;;5065735;28;20213;-59
2021/10/09 03:09:20;;;;;;;14.90;11.10;;;;;;;;;;5066962;28;20247;-60
2021/10/09 03:11:45;;;;;;;13.77;11.53;;;;;;;;;;5060733;28;20294;-60
2021/10/09 03:14:10;;;;;;;21.57;11.60;;;;;;;;;;5060543;28;20578;-59
2021/10/09 03:16:35;;;;;;;15.23;12.67;;;;;;;;;;5046562;28;20232;-59
2021/10/09 03:19:01;;;;;;;14.90;11.73;;;;;;;;;;5060823;28;20696;-59
2021/10/09 03:21:26;;;;;;;17.10;10.53;;;;;;;;;;5046175;28;20233;-60
2021/10/09 03:23:52;;;;;;;12.57;10.50;;;;;;;;;;5060320;28;20294;-59
2021/10/09 03:26:17;;;;;;;15.50;12.10;;;;;;;;;;5046606;28;20287;-60
2021/10/09 03:28:42;;;;;;;16.67;11.63;;;;;;;;;;5060521;28;20267;-60
2021/10/09 03:31:07;;;;;;;16.40;11.07;;;;;;;;;;5066182;28;20665;-60
2021/10/09 03:33:33;;;;;;;13.50;10.27;;;;;;;;;;5064096;28;20248;-60
2021/10/09 03:35:58;;;;;;;20.43;12.13;;;;;;;;;;5060216;28;20662;-60
2021/10/09 03:38:24;;;;;;;15.83;12.17;;;;;;;;;;5062661;28;20217;-59
2021/10/09 03:40:52;;;;;;;15.50;11.90;;;;;;;;;;5066950;28;20232;-60
2021/10/09 03:43:21;;;;;;;15.27;11.93;;;;;;;;;;5064410;28;20474;-60
2021/10/09 03:45:55;;;;;;;17.20;11.47;;;;;;;;;;5060055;28;20452;-60
2021/10/09 03:53:29;;;;;;;13.33;11.97;;;;;;;;;;5066344;28;20235;-59
2021/10/09 03:55:55;;;;;;;19.47;12.17;;;;;;;;;;5061120;28;20459;-60
2021/10/09 03:58:20;;;;;;;15.07;11.83;;;;;;;;;;5063265;28;20316;-60
2021/10/09 04:00:45;;;;;;;16.47;11.57;;;;;;;;;;5069873;28;20232;-60
2021/10/09 04:03:10;;;;;;;18.20;11.93;;;;;;;;;;5070588;28;20295;-59
2021/10/09 04:05:36;;;;;;;19.37;12.60;;;;;;;;;;5063354;28;20307;-59
2021/10/09 04:08:04;;;;;;;14.57;12.70;;;;;;;;;;5076919;28;20213;-60
2021/10/09 04:10:29;;;;;;;18.60;12.77;;;;;;;;;;5063703;28;20237;-60
2021/10/09 04:12:55;;;;;;;13.63;12.23;;;;;;;;;;5063668;28;20841;-60
2021/10/09 04:15:20;;;;;;;14.57;12.37;;;;;;;;;;5069310;28;20213;-60
2021/10/09 04:17:46;;;;;;;14.17;11.03;;;;;;;;;;5070240;28;20709;-60
2021/10/09 04:20:11;;;;;;;12.47;11.20;;;;;;;;;;5063730;28;20282;-60
2021/10/09 04:22:36;;;;;;;15.37;11.70;;;;;;;;;;5063307;28;20272;-59
2021/10/09 04:25:01;;;;;;;17.80;11.70;;;;;;;;;;5070426;28;20233;-60
2021/10/09 04:27:27;;;;;;;16.10;12.97;;;;;;;;;;5068675;28;20546;-60
2021/10/09 04:29:52;;;;;;;14.97;10.93;;;;;;;;;;5063195;28;20227;-59
2021/10/09 04:32:17;;;;;;;13.87;11.20;;;;;;;;;;5063369;28;20224;-59
2021/10/09 04:34:42;;;;;;;12.40;10.83;;;;;;;;;;5069731;28;20311;-60
2021/10/09 04:37:08;;;;;;;14.83;10.83;;;;;;;;;;5064746;28;20212;-59
2021/10/09 04:39:33;;;;;;;17.83;11.77;;;;;;;;;;5062726;28;20606;-60
2021/10/09 04:41:58;;;;;;;14.57;11.23;;;;;;;;;;5068517;28;20217;-60
2021/10/09 04:44:23;;;;;;;16.07;11.67;;;;;;;;;;5069685;28;20212;-59
2021/10/09 04:46:49;;;;;;;12.37;11.07;;;;;;;;;;5064275;28;20311;-60
2021/10/09 04:49:14;;;;;;;15.30;11.87;;;;;;;;;;5062827;28;20213;-60
2021/10/09 04:51:40;;;;;;;16.97;11.33;;;;;;;;;;5068251;28;20363;-60
2021/10/09 04:54:05;;;;;;;19.30;12.80;;;;;;;;;;5069749;28;20219;-61
2021/10/09 04:56:31;;;;;;;14.23;10.50;;;;;;;;;;5063043;28;20289;-59
2021/10/09 04:58:56;;;;;;;12.77;10.93;;;;;;;;;;5062828;28;20553;-59
2021/10/09 05:01:21;;;;;;;15.33;11.40;;;;;;;;;;5069284;28;20251;-59
2021/10/09 05:03:46;;;;;;;14.60;11.23;;;;;;;;;;5068997;28;20217;-59
2021/10/09 05:06:12;;;;;;;17.53;11.43;;;;;;;;;;5062980;28;20311;-60
2021/10/09 05:08:37;;;;;;;15.53;12.10;;;;;;;;;;5060709;28;20221;-59
2021/10/09 05:11:02;;;;;;;15.07;11.43;;;;;;;;;;5068932;28;20403;-60
2021/10/09 05:13:28;;;;;;;15.17;11.50;;;;;;;;;;5068889;28;20298;-57
2021/10/09 05:15:53;;;;;;;15.00;11.93;;;;;;;;;;5062382;28;20274;-59
2021/10/09 05:18:18;;;;;;;22.50;12.23;;;;;;;;;;5063300;28;20248;-59
2021/10/09 05:20:44;;;;;;;14.33;11.40;;;;;;;;;;5068899;28;20221;-60
2021/10/09 05:23:09;;;;;;;16.10;12.17;;;;;;;;;;5068056;28;20227;-59
2021/10/09 05:25:36;;;;;;;15.90;12.73;;;;;;;;;;5061716;28;20223;-60
2021/10/09 05:28:07;;;;;;;12.70;10.77;;;;;;;;;;5063818;28;20217;-59
2021/10/09 05:30:33;;;;;;;17.60;11.13;;;;;;;;;;5068481;28;20472;-60
2021/10/09 05:35:43;;;;;;;16.30;13.27;;;;;;;;;;5051116;28;20472;-60
2021/10/09 05:38:08;;;;;;;13.70;11.73;;;;;;;;;;5061889;28;20811;-59
2021/10/09 05:40:33;;;;;;;19.37;11.67;;;;;;;;;;5067338;28;20668;-58
2021/10/09 05:42:59;;;;;;;17.03;12.83;;;;;;;;;;5068673;28;20217;-59
2021/10/09 05:45:24;;;;;;;14.57;11.77;;;;;;;;;;5063092;28;20232;-59
2021/10/09 05:47:51;;;;;;;12.73;11.07;;;;;;;;;;5061381;28;20224;-58
2021/10/09 05:50:17;;;;;;;13.43;11.03;;;;;;;;;;5067787;28;20237;-59
2021/10/09 05:52:49;;;;;;;16.87;12.03;;;;;;;;;;5068303;28;20466;-60
2021/10/09 05:55:34;;;;;;;13.90;10.97;;;;;;;;;;5064103;28;20774;-59
2021/10/09 06:44:26;;;;;;;16.23;11.87;;;;;;;;;;5064024;28;20498;-60
2021/10/09 06:47:03;;;;;;;13.50;11.50;;;;;;;;;;5067649;28;20784;-59
2021/10/09 06:49:46;;;;;;;15.80;11.60;;;;;;;;;;5067918;28;20474;-59
2021/10/09 07:00:23;;;;;;;17.70;10.50;;;;;;;;;;5063164;28;20934;-60
2021/10/09 07:02:49;;;;;;;16.03;10.90;;;;;;;;;;5067539;28;20468;-60
2021/10/09 07:05:15;;;;;;;15.27;11.33;;;;;;;;;;5064006;28;20286;-60
2021/10/09 07:07:49;;;;;;;15.97;11.17;;;;;;;;;;5060625;28;20709;-59
2021/10/09 07:10:15;;;;;;;18.23;11.17;;;;;;;;;;5062224;28;20319;-59
2021/10/09 07:12:40;;;;;;;14.10;10.70;;;;;;;;;;5067799;28;20558;-60
2021/10/09 07:15:10;;;;;;;18.70;13.00;;;;;;;;;;5064523;28;20216;-58
2021/10/09 07:17:35;;;;;;;14.17;10.03;;;;;;;;;;5060207;28;20224;-60
2021/10/09 07:20:03;;;;;;;13.90;10.07;;;;;;;;;;5062756;28;20482;-61
2021/10/09 07:22:29;;;;;;;15.07;11.30;;;;;;;;;;5067401;28;20227;-60
2021/10/09 07:24:54;;;;;;;14.83;10.90;;;;;;;;;;5065349;28;20512;-59
2021/10/09 07:27:19;;;;;;;12.87;10.60;;;;;;;;;;5060048;28;20231;-59
2021/10/09 07:29:45;;;;;;;12.60;11.00;;;;;;;;;;5062707;28;20660;-59
2021/10/09 07:32:10;;;;;;;14.70;11.00;;;;;;;;;;5068642;28;20224;-59
2021/10/09 07:34:35;;;;;;;14.17;11.17;;;;;;;;;;5069965;28;20605;-59
2021/10/09 07:37:00;;;;;;;19.20;11.13;;;;;;;;;;5063157;28;20220;-59
2021/10/09 07:39:26;;;;;;;15.33;10.97;;;;;;;;;;5075866;28;20686;-60
2021/10/09 07:41:52;;;;;;;16.17;9.90;;;;;;;;;;5064209;28;20525;-59
2021/10/09 07:44:22;;;;;;;17.63;10.90;;;;;;;;;;5065690;28;20251;-60
2021/10/09 07:46:48;;;;;;;11.90;10.50;;;;;;;;;;5071027;28;20470;-59
2021/10/09 07:49:13;;;;;;;12.17;10.70;;;;;;;;;;5069278;28;20957;-60
2021/10/09 07:51:39;;;;;;;15.87;10.63;;;;;;;;;;5064006;28;20504;-59
2021/10/09 07:54:04;;;;;;;11.83;10.63;;;;;;;;;;5065629;28;20245;-61
2021/10/09 07:56:30;;;;;;;12.67;10.20;;;;;;;;;;5070804;28;20221;-59
2021/10/09 07:58:55;;;;;;;12.27;9.40;;;;;;;;;;5068793;28;20540;-59
2021/10/09 08:01:21;;;;;;;14.77;11.40;;;;;;;;;;5063342;28;20470;-59
2021/10/09 08:03:46;;;;;;;14.50;11.10;;;;;;;;;;5066093;28;20259;-59
2021/10/09 08:06:11;;;;;;;14.97;10.60;;;;;;;;;;5070323;28;20229;-59
2021/10/09 08:08:37;;;;;;;11.00;9.30;;;;;;;;;;5067992;28;20518;-60
2021/10/09 08:11:02;;;;;;;13.63;9.87;;;;;;;;;;5063351;28;20698;-60
2021/10/09 08:13:27;;;;;;;11.60;8.60;;;;;;;;;;5066052;28;20303;-60
2021/10/09 08:15:52;;;;;;;14.50;10.53;;;;;;;;;;5069356;28;20673;-60
2021/10/09 08:18:18;;;;;;;13.87;10.40;;;;;;;;;;5066586;28;20235;-59
2021/10/09 08:20:45;;;;;;;10.40;9.30;;;;;;;;;;5063247;28;20273;-60
2021/10/09 08:23:24;;;;;;;10.97;8.70;;;;;;;;;;5066465;28;20262;-60
2021/10/09 08:39:10;;;;;;;12.27;8.53;;;;;;;;;;5075693;28;20481;-60
2021/10/09 08:41:36;;;;;;;9.23;8.10;;;;;;;;;;5062764;28;20478;-60
2021/10/09 08:44:01;;;;;;;9.20;8.27;;;;;;;;;;5066344;28;20857;-60
2021/10/09 08:46:26;;;;;;;9.20;8.07;;;;;;;;;;5069352;28;20245;-60
2021/10/09 08:48:52;;;;;;;13.73;8.70;;;;;;;;;;5065869;28;20287;-59
2021/10/09 08:51:22;;;;;;;9.10;8.20;;;;;;;;;;5062438;28;20268;-59
2021/10/09 08:53:47;;;;;;;10.57;9.00;;;;;;;;;;5067337;28;20232;-60
2021/10/09 08:56:30;;;;;;;9.87;7.50;;;;;;;;;;5069850;28;20472;-60
2021/10/09 08:59:23;;;;;;;9.50;8.50;;;;;;;;;;5066915;28;20227;-59
2021/10/09 09:02:22;;;;;;;10.70;7.63;;;;;;;;;;5051328;28;20478;-60
2021/10/09 09:04:53;;;;;;;7.83;7.10;;;;;;;;;;5062348;28;20891;-59
2021/10/09 09:07:47;;;;;;;9.53;7.60;;;;;;;;;;5062742;28;20465;-60
2021/10/09 09:27:07;;;;;;;9.10;6.60;;;;;;;;;;5062158;28;20490;-60
2021/10/09 09:40:14;;;;;;;8.57;6.50;;;;;;;;;;5070044;28;20502;-60
2021/10/09 09:42:44;;;;;;;8.23;7.23;;;;;;;;;;5066328;28;20321;-59
2021/10/09 09:45:10;;;;;;;7.80;6.57;;;;;;;;;;5061798;28;20469;-60
2021/10/09 09:47:40;;;;;;;9.20;6.60;;;;;;;;;;5062310;28;20460;-59
2021/10/09 09:50:11;;;;;;;7.40;5.80;;;;;;;;;;5068266;28;20531;-60
2021/10/09 09:52:38;;;;;;;9.40;7.03;;;;;;;;;;5067882;28;20808;-60
2021/10/09 09:55:05;;;;;;;11.47;6.70;;;;;;;;;;5062018;28;20482;-60
2021/10/09 09:57:30;;;;;;;10.33;7.33;;;;;;;;;;5061066;28;21018;-60
2021/10/09 09:59:57;;;;;;;8.60;7.57;;;;;;;;;;5068204;28;20597;-59
2021/10/09 10:02:26;;;;;;;11.10;7.10;;;;;;;;;;5066623;28;20655;-60
2021/10/09 10:04:51;;;;;;;9.83;6.90;;;;;;;;;;5061066;28;20524;-60
2021/10/09 10:07:18;;;;;;;8.67;6.37;;;;;;;;;;5061051;28;20472;-59
2021/10/09 10:09:43;;;;;;;6.40;5.80;;;;;;;;;;5067617;28;20593;-60
2021/10/09 10:12:09;;;;;;;8.17;6.40;;;;;;;;;;5066734;28;20530;-60
2021/10/09 10:14:34;;;;;;;7.10;6.20;;;;;;;;;;5060074;28;20270;-59
2021/10/09 10:17:01;;;;;;;12.47;6.67;;;;;;;;;;5061137;28;20362;-59
2021/10/09 10:19:57;;;;;;;7.90;5.80;;;;;;;;;;5047434;28;20483;-60
2021/10/09 10:22:31;;;;;;;8.50;5.17;;;;;;;;;;5060998;28;20455;-60
2021/10/09 10:24:56;;;;;;;8.43;5.30;;;;;;;;;;5061524;28;20577;-60
2021/10/09 10:27:42;;;;;;;5.70;4.70;;;;;;;;;;5066589;28;20487;-59
2021/10/09 10:30:49;;;;;;;7.40;4.73;;;;;;;;;;5066257;28;20213;-60
2021/10/09 10:33:18;;;;;;;6.60;5.50;;;;;;;;;;5052982;28;20545;-59
2021/10/09 10:35:44;;;;;;;7.40;4.77;;;;;;;;;;5066669;28;20470;-60
2021/10/09 10:38:11;;;;;;;7.07;6.37;;;;;;;;;;5066861;28;20459;-59
2021/10/09 10:40:54;;;;;;;7.57;5.90;;;;;;;;;;5066269;28;20297;-60
2021/10/09 10:43:38;;;;;;;6.90;5.60;;;;;;;;;;5067404;28;20535;-59
2021/10/09 10:46:23;;;;;;;9.50;6.10;;;;;;;;;;5066242;28;20546;-59
2021/10/09 10:51:46;;;;;;;6.80;5.80;;;;;;;;;;5059753;28;20474;-59
2021/10/09 10:54:16;;;;;;;9.33;5.73;;;;;;;;;;5061185;28;20463;-59
2021/10/09 10:57:02;;;;;;;7.17;6.23;;;;;;;;;;5047231;28;20816;-58
2021/10/09 10:59:30;;;;;;;6.33;5.73;;;;;;;;;;5060112;28;20570;-58
2021/10/09 11:02:09;;;;;;;6.63;6.03;;;;;;;;;;5064003;28;20637;-60
2021/10/09 11:04:36;;;;;;;7.53;6.00;;;;;;;;;;5056313;28;20509;-60
2021/10/09 11:07:03;;;;;;;10.00;6.30;;;;;;;;;;5053898;28;20778;-59
2021/10/09 11:09:28;;;;;;;9.10;5.40;;;;;;;;;;5064304;28;20793;-60
2021/10/09 11:11:53;;;;;;;9.80;5.70;;;;;;;;;;5059254;28;20476;-59
2021/10/09 11:14:22;;;;;;;5.90;5.40;;;;;;;;;;5065040;28;20217;-60
2021/10/09 11:16:48;;;;;;;7.03;5.37;;;;;;;;;;5066366;28;20224;-57
2021/10/09 11:19:14;;;;;;;6.83;5.20;;;;;;;;;;5062379;28;20455;-61
2021/10/09 11:21:55;;;;;;;7.77;5.53;;;;;;;;;;5058604;28;20479;-60
2021/10/09 11:24:20;;;;;;;6.90;6.30;;;;;;;;;;5061610;28;20224;-59
2021/10/09 11:26:55;;;;;;;7.23;6.20;;;;;;;;;;5065501;28;21003;-60
2021/10/09 11:29:21;;;;;;;10.27;6.80;;;;;;;;;;5065372;28;20228;-60
2021/10/09 11:31:46;;;;;;;7.47;5.53;;;;;;;;;;5059611;28;21007;-61
2021/10/09 11:34:11;;;;;;;6.47;5.00;;;;;;;;;;5061560;28;20618;-60
2021/10/09 11:36:38;;;;;;;7.17;5.63;;;;;;;;;;5066832;28;20229;-60
2021/10/09 11:39:11;;;;;;;8.63;5.77;;;;;;;;;;5063379;28;20220;-62
2021/10/09 11:41:36;;;;;;;6.27;5.30;;;;;;;;;;5059709;28;20463;-59
2021/10/09 11:44:35;;;;;;;6.87;6.17;;;;;;;;;;5060476;28;20452;-60
2021/10/09 11:55:34;;;;;;;8.17;5.70;;;;;;;;;;5059821;28;20532;-60
2021/10/09 11:58:04;;;;;;;7.53;5.50;;;;;;;;;;5064998;28;20791;-60
2021/10/09 12:00:29;;;;;;;6.40;5.30;;;;;;;;;;5066611;28;20231;-59
2021/10/09 12:02:59;;;;;;;8.60;4.87;;;;;;;;;;5059903;28;20781;-60
2021/10/09 12:05:43;;;;;;;4.80;4.40;;;;;;;;;;5059359;28;20656;-60
2021/10/09 12:08:15;;;;;;;4.97;4.30;;;;;;;;;;5059871;28;20523;-60
2021/10/09 12:10:41;;;;;;;5.37;4.87;;;;;;;;;;5047574;28;20471;-59
2021/10/09 12:13:06;;;;;;;6.40;4.07;;;;;;;;;;5069886;28;20835;-60
2021/10/09 12:15:33;;;;;;;6.10;5.07;;;;;;;;;;5060257;28;20459;-59
2021/10/09 12:17:59;;;;;;;6.07;4.87;;;;;;;;;;5060636;28;20676;-60
2021/10/09 12:20:26;;;;;;;6.00;5.10;;;;;;;;;;5069270;28;20482;-61
2021/10/09 12:22:55;;;;;;;7.37;5.17;;;;;;;;;;5069350;28;20505;-60
2021/10/09 12:25:24;;;;;;;32.23;25.03;;;;;;;;;;5064635;28;20463;-60
2021/10/09 12:27:54;;;;;;;25.97;20.57;;;;;;;;;;5062641;28;20467;-60
2021/10/09 12:30:19;;;;;;;13.33;10.37;;;;;;;;;;5067238;28;20456;-60
2021/10/09 12:32:48;;;;;;;16.60;14.60;;;;;;;;;;5069413;28;20485;-61
2021/10/09 12:35:18;;;;;;;9.73;8.67;;;;;;;;;;5065339;28;20220;-61
2021/10/09 12:37:59;;;;;;;5.40;4.40;;;;;;;;;;5060518;28;20999;-60
2021/10/09 12:40:26;;;;;;;7.40;5.57;;;;;;;;;;5068035;28;20458;-60
2021/10/09 12:42:54;;;;;;;6.33;4.97;;;;;;;;;;5062299;28;20475;-60
2021/10/09 12:45:21;;;;;;;8.80;7.43;;;;;;;;;;5062708;28;20517;-59
2021/10/09 12:47:46;;;;;;;5.50;4.50;;;;;;;;;;5069045;28;20456;-60
2021/10/09 12:50:12;;;;;;;6.93;6.20;;;;;;;;;;5068704;28;20500;-60
2021/10/09 12:52:37;;;;;;;6.30;4.80;;;;;;;;;;5062135;28;20220;-60
2021/10/09 12:55:03;;;;;;;4.80;4.30;;;;;;;;;;5062457;28;20221;-60
2021/10/09 12:57:31;;;;;;;7.97;6.07;;;;;;;;;;5069048;28;20222;-61
2021/10/09 12:59:58;;;;;;;9.47;8.37;;;;;;;;;;5068435;28;20236;-60
2021/10/09 13:02:23;;;;;;;17.57;15.17;;;;;;;;;;5062002;28;20461;-60
2021/10/09 13:04:48;;;;;;;34.43;29.73;;;;;;;;;;5062893;28;20464;-60
2021/10/09 13:07:14;;;;;;;12.47;10.97;;;;;;;;;;5069164;28;20263;-60
2021/10/09 13:09:39;;;;;;;19.70;16.97;;;;;;;;;;5067391;28;20216;-61
2021/10/09 13:12:08;;;;;;;20.97;17.80;;;;;;;;;;5062084;28;20664;-60
2021/10/09 13:14:33;;;;;;;26.13;22.77;;;;;;;;;;5062530;28;20553;-60
2021/10/09 13:16:59;;;;;;;24.13;20.03;;;;;;;;;;5068914;28;20546;-60
2021/10/09 13:19:24;;;;;;;9.67;7.60;;;;;;;;;;5068394;28;20540;-61
2021/10/09 13:21:50;;;;;;;6.20;5.27;;;;;;;;;;5061637;28;20582;-60
2021/10/09 13:24:15;;;;;;;7.10;6.07;;;;;;;;;;5062965;28;20213;-59
2021/10/09 13:26:40;;;;;;;8.07;5.93;;;;;;;;;;5068347;28;20316;-61
2021/10/09 13:29:06;;;;;;;6.17;5.57;;;;;;;;;;5067542;28;20209;-60
2021/10/09 13:31:31;;;;;;;6.57;5.97;;;;;;;;;;5061145;28;20675;-61
2021/10/09 13:33:57;;;;;;;6.70;5.97;;;;;;;;;;5063390;28;20213;-60
2021/10/09 13:36:23;;;;;;;6.73;4.73;;;;;;;;;;5068529;28;20213;-61
2021/10/09 13:38:48;;;;;;;5.77;4.80;;;;;;;;;;5067045;28;20220;-61
2021/10/09 13:41:14;;;;;;;5.90;4.03;;;;;;;;;;5060531;28;20459;-60
2021/10/09 13:43:39;;;;;;;4.87;4.13;;;;;;;;;;5062834;28;20266;-61
2021/10/09 13:46:05;;;;;;;5.70;4.57;;;;;;;;;;5068655;28;20231;-60
2021/10/09 13:48:30;;;;;;;5.77;4.30;;;;;;;;;;5066761;28;20217;-61
2021/10/09 13:50:55;;;;;;;4.63;4.17;;;;;;;;;;5060636;28;20961;-60
2021/10/09 13:53:21;;;;;;;3.93;3.53;;;;;;;;;;5063602;28;20300;-60
2021/10/09 13:55:47;;;;;;;4.63;4.23;;;;;;;;;;5067799;28;20232;-61
2021/10/09 13:58:13;;;;;;;5.37;4.30;;;;;;;;;;5066261;28;20221;-60
2021/10/09 14:00:40;;;;;;;6.00;4.00;;;;;;;;;;5060849;28;20514;-60
2021/10/09 14:03:06;;;;;;;5.50;5.00;;;;;;;;;;5062084;28;20463;-61
2021/10/09 14:05:31;;;;;;;6.57;4.33;;;;;;;;;;5046072;28;20455;-61
2021/10/09 14:07:57;;;;;;;3.80;3.43;;;;;;;;;;5062760;28;20214;-60
2021/10/09 14:10:23;;;;;;;5.70;4.27;;;;;;;;;;5067329;28;20252;-60
2021/10/09 14:12:48;;;;;;;6.40;4.50;;;;;;;;;;5065734;28;20546;-59
2021/10/09 14:15:14;;;;;;;4.93;3.63;;;;;;;;;;5061085;28;20220;-61
2021/10/09 14:17:39;;;;;;;3.77;3.47;;;;;;;;;;5061505;28;20629;-62
2021/10/09 14:20:07;;;;;;;5.70;4.30;;;;;;;;;;5067700;28;20267;-61
2021/10/09 14:22:34;;;;;;;4.47;4.00;;;;;;;;;;5065713;28;20216;-60
2021/10/09 14:24:59;;;;;;;5.67;4.40;;;;;;;;;;5055192;28;20444;-61
2021/10/09 14:27:28;;;;;;;5.17;3.97;;;;;;;;;;5052368;28;20471;-60
2021/10/09 14:29:54;;;;;;;5.00;4.50;;;;;;;;;;5051798;28;20225;-60
2021/10/09 14:32:19;;;;;;;4.83;3.83;;;;;;;;;;5052333;28;20456;-59
2021/10/09 14:34:44;;;;;;;6.57;4.30;;;;;;;;;;5051132;28;20217;-60
2021/10/09 14:37:09;;;;;;;5.30;3.63;;;;;;;;;;5052652;28;20213;-61
2021/10/09 14:39:35;;;;;;;5.37;4.10;;;;;;;;;;5052186;28;20308;-60
2021/10/09 14:42:00;;;;;;;4.70;4.10;;;;;;;;;;5051528;28;20205;-60
2021/10/09 14:44:26;;;;;;;4.13;3.73;;;;;;;;;;5053916;28;20221;-60
2021/10/09 14:49:43;;;;;;;4.50;4.10;;;;;;;;;;5054344;28;20251;-60
2021/10/09 14:52:27;;;;;;;5.70;4.90;;;;;;;;;;5053846;28;20448;-60
2021/10/09 15:18:48;;;;;;;4.53;4.03;;;;;;;;;;5053494;28;20448;-60
2021/10/09 15:21:13;;;;;;;4.57;4.17;;;;;;;;;;5053779;28;20228;-60
2021/10/09 15:23:38;;;;;;;9.10;4.23;;;;;;;;;;5053141;28;20229;-60
2021/10/09 15:26:04;;;;;;;6.07;5.47;;;;;;;;;;5053643;28;20292;-59
2021/10/09 15:28:29;;;;;;;5.63;5.00;;;;;;;;;;5052310;28;20374;-60
2021/10/09 15:30:54;;;;;;;9.73;5.80;;;;;;;;;;5053264;28;20225;-59
2021/10/09 15:33:19;;;;;;;10.40;5.67;;;;;;;;;;5053724;28;20289;-59
2021/10/09 15:35:45;;;;;;;6.43;5.83;;;;;;;;;;5053200;28;20584;-59
2021/10/09 15:38:10;;;;;;;6.33;5.63;;;;;;;;;;5053559;28;20212;-59
2021/10/09 15:40:36;;;;;;;5.47;4.90;;;;;;;;;;5053127;28;20213;-60
2021/10/09 15:43:01;;;;;;;6.10;5.30;;;;;;;;;;5053609;28;20292;-60
2021/10/09 15:45:26;;;;;;;5.83;4.77;;;;;;;;;;5053585;28;20633;-59
2021/10/09 15:47:52;;;;;;;5.43;4.67;;;;;;;;;;5053073;28;20228;-59
2021/10/09 15:50:22;;;;;;;6.67;4.80;;;;;;;;;;5053295;28;20221;-59
2021/10/09 15:52:48;;;;;;;5.40;4.90;;;;;;;;;;5055692;28;20224;-59
2021/10/09 15:55:14;;;;;;;4.93;4.47;;;;;;;;;;5057501;28;20448;-59
2021/10/09 15:57:39;;;;;;;4.97;4.47;;;;;;;;;;5057150;28;20217;-59
2021/10/09 16:00:06;;;;;;;6.87;4.27;;;;;;;;;;5057310;28;20275;-58
2021/10/09 16:02:32;;;;;;;6.07;5.00;;;;;;;;;;5056665;28;20695;-59
2021/10/09 16:04:58;;;;;;;5.27;4.77;;;;;;;;;;5057048;28;20455;-58
2021/10/09 16:07:23;;;;;;;5.93;5.07;;;;;;;;;;5057068;28;20540;-59
2021/10/09 16:09:48;;;;;;;5.60;5.00;;;;;;;;;;5056511;28;20263;-59
2021/10/09 16:12:13;;;;;;;6.43;5.83;;;;;;;;;;5056891;28;20664;-59
2021/10/09 16:14:39;;;;;;;6.60;5.13;;;;;;;;;;5056707;28;20308;-59
2021/10/09 16:17:19;;;;;;;7.47;5.33;;;;;;;;;;5057049;28;20240;-59
2021/10/09 16:19:44;;;;;;;6.03;5.40;;;;;;;;;;5056637;28;20229;-59
2021/10/09 16:22:09;;;;;;;7.37;5.50;;;;;;;;;;5056765;28;20988;-60
2021/10/09 16:24:34;;;;;;;5.70;5.10;;;;;;;;;;5056434;28;20217;-59
2021/10/09 16:27:00;;;;;;;8.00;5.73;;;;;;;;;;5056817;28;20292;-59
2021/10/09 16:29:25;;;;;;;7.37;5.73;;;;;;;;;;5056741;28;20251;-59
2021/10/09 16:31:50;;;;;;;7.43;6.00;;;;;;;;;;5056128;28;20316;-58
2021/10/09 16:34:15;;;;;;;6.60;5.97;;;;;;;;;;5056798;28;20209;-59
2021/10/09 16:36:42;;;;;;;8.07;5.83;;;;;;;;;;5056207;28;20313;-60
2021/10/09 16:39:07;;;;;;;7.97;6.10;;;;;;;;;;5056836;28;20652;-59
2021/10/09 16:41:33;;;;;;;7.37;5.50;;;;;;;;;;5056204;28;20460;-60
2021/10/09 16:43:58;;;;;;;6.20;5.60;;;;;;;;;;5056661;28;20209;-60
2021/10/09 16:46:24;;;;;;;10.53;6.33;;;;;;;;;;5056516;28;20216;-61
2021/10/09 16:48:49;;;;;;;6.93;5.60;;;;;;;;;;5056215;28;20216;-59
2021/10/09 16:51:14;;;;;;;6.37;5.77;;;;;;;;;;5056007;28;20213;-59
2021/10/09 16:53:40;;;;;;;6.90;6.23;;;;;;;;;;5056200;28;20548;-59
2021/10/09 16:56:05;;;;;;;5.93;5.33;;;;;;;;;;5055340;28;20224;-60
2021/10/09 16:58:30;;;;;;;5.77;5.33;;;;;;;;;;5055003;28;20252;-59